Time;durP1;ratioP1;P1;durP2;ratioP2;P2;SDS_P1;SDS_P2;PMS_P1;PMS_P2;Temp;Humidity;BMP_temperature;BMP_pressure;BME280_temperature;BME280_humidity;BME280_pressure;Samples;Min_cycle;Max_cycle;Signal;HPM_P1;HPM_P2
2023/10/23 00:00:03;;;;;;;37.78;34.58;;;14.10;99.90;;;;;;5069471;28;20040;-63
2023/10/23 00:02:30;;;;;;;38.83;35.42;;;14.10;99.90;;;;;;5069555;28;20166;-63
2023/10/23 00:04:55;;;;;;;37.63;34.40;;;13.90;99.90;;;;;;5069178;28;20044;-63
2023/10/23 00:07:21;;;;;;;39.80;36.15;;;14.50;99.90;;;;;;5068947;28;20044;-63
2023/10/23 00:09:46;;;;;;;39.42;36.22;;;14.00;99.90;;;;;;5067026;28;20055;-63
2023/10/23 00:12:12;;;;;;;39.08;35.72;;;13.90;99.90;;;;;;5069009;28;20611;-63
2023/10/23 00:14:37;;;;;;;152.15;39.85;;;14.00;99.90;;;;;;5069117;28;20043;-63
2023/10/23 00:17:03;;;;;;;103.65;38.03;;;13.90;99.90;;;;;;5066746;28;20044;-63
2023/10/23 00:19:29;;;;;;;72.80;37.35;;;13.90;99.90;;;;;;5059844;28;20063;-63
2023/10/23 00:21:54;;;;;;;42.53;39.13;;;14.00;99.90;;;;;;5068968;28;20075;-62
2023/10/23 00:24:21;;;;;;;42.17;38.67;;;13.90;1.00;;;;;;5069143;28;20094;-63
2023/10/23 00:26:47;;;;;;;42.15;38.30;;;14.10;1.00;;;;;;5069174;28;20040;-63
2023/10/23 00:29:13;;;;;;;41.33;37.63;;;14.00;1.00;;;;;;5065389;28;20043;-63
2023/10/23 00:31:38;;;;;;;47.78;36.15;;;14.10;1.00;;;;;;5047394;28;20053;-63
2023/10/23 00:34:04;;;;;;;36.95;33.85;;;13.90;1.00;;;;;;5048881;28;20040;-63
2023/10/23 00:36:29;;;;;;;42.22;38.28;;;13.90;1.00;;;;;;5049914;28;20051;-63
2023/10/23 00:38:55;;;;;;;43.30;39.65;;;13.80;1.00;;;;;;5069058;28;20484;-60
2023/10/23 00:41:20;;;;;;;41.63;38.03;;;14.00;1.00;;;;;;5066873;28;20105;-61
2023/10/23 00:43:46;;;;;;;41.42;37.63;;;13.90;1.00;;;;;;5068749;28;20048;-61
2023/10/23 00:46:18;;;;;;;41.13;37.78;;;13.90;1.00;;;;;;5068697;28;20044;-60
2023/10/23 00:48:44;;;;;;;40.45;37.20;;;13.90;1.00;;;;;;5068240;28;20059;-61
2023/10/23 00:51:12;;;;;;;39.72;36.38;;;14.00;1.00;;;;;;5068432;28;20411;-60
2023/10/23 00:53:40;;;;;;;35.22;31.90;;;13.80;1.00;;;;;;5067893;28;20072;-61
2023/10/23 00:56:07;;;;;;;40.97;37.47;;;13.90;1.00;;;;;;5068353;28;20535;-60
2023/10/23 00:58:38;;;;;;;42.67;39.10;;;13.80;1.00;;;;;;5067710;28;20040;-60
2023/10/23 01:01:04;;;;;;;42.78;39.17;;;14.00;1.00;;;;;;5068113;28;20032;-60
2023/10/23 01:03:29;;;;;;;41.85;37.83;;;14.10;1.00;;;;;;5068686;28;20190;-61
2023/10/23 01:05:55;;;;;;;40.58;37.10;;;14.00;1.00;;;;;;5060222;28;20123;-61
2023/10/23 01:08:21;;;;;;;41.20;37.33;;;14.10;1.00;;;;;;5063156;28;20043;-61
2023/10/23 01:10:46;;;;;;;41.30;37.70;;;14.10;1.00;;;;;;5067913;28;20044;-60
2023/10/23 01:13:13;;;;;;;44.00;40.40;;;14.20;1.00;;;;;;5068555;28;20044;-60
2023/10/23 01:15:39;;;;;;;45.58;41.78;;;14.20;1.00;;;;;;5068119;28;20059;-61
2023/10/23 01:18:05;;;;;;;40.00;35.90;;;14.30;1.00;;;;;;5056917;28;20482;-61
2023/10/23 01:20:31;;;;;;;40.92;37.22;;;14.00;1.00;;;;;;5061517;28;20141;-60
2023/10/23 01:22:58;;;;;;;41.60;38.08;;;14.10;1.00;;;;;;5067844;28;20051;-61
2023/10/23 01:25:24;;;;;;;41.58;37.53;;;14.00;1.00;;;;;;5067720;28;20048;-61
2023/10/23 01:27:50;;;;;;;43.38;38.95;;;14.20;5.30;;;;;;5065695;28;20414;-60
2023/10/23 01:30:16;;;;;;;41.15;37.33;;;14.10;2.90;;;;;;5055883;28;20041;-60
2023/10/23 01:32:41;;;;;;;41.45;37.90;;;14.80;4.60;;;;;;5047478;28;20048;-60
2023/10/23 01:35:07;;;;;;;41.92;37.90;;;13.90;11.20;;;;;;5052023;28;20155;-60
2023/10/23 01:37:33;;;;;;;40.80;37.00;;;14.00;25.90;;;;;;5067409;28;20535;-62
2023/10/23 01:39:59;;;;;;;41.58;38.08;;;13.90;28.30;;;;;;5066630;28;20284;-61
2023/10/23 01:42:30;;;;;;;36.78;32.38;;;13.90;34.80;;;;;;5053071;28;20498;-60
2023/10/23 01:44:55;;;;;;;43.15;39.50;;;14.00;1.00;;;;;;5047936;28;20040;-62
2023/10/23 01:47:23;;;;;;;42.60;39.03;;;14.00;30.00;;;;;;5053995;28;20410;-64
2023/10/23 01:49:49;;;;;;;42.10;38.03;;;13.90;62.80;;;;;;5067579;28;20063;-64
2023/10/23 01:52:15;;;;;;;37.13;33.58;;;14.00;75.90;;;;;;5064975;28;20048;-65
2023/10/23 01:54:40;;;;;;;42.60;39.00;;;13.90;25.50;;;;;;5067681;28;20620;-64
2023/10/23 01:57:06;;;;;;;39.15;35.92;;;14.00;81.10;;;;;;5066381;28;20037;-64
2023/10/23 01:59:31;;;;;;;40.95;37.33;;;13.80;90.50;;;;;;5065656;28;20044;-64
2023/10/23 02:01:57;;;;;;;40.65;36.95;;;14.00;74.40;;;;;;5066334;28;20490;-64
2023/10/23 02:04:23;;;;;;;40.58;36.80;;;13.90;74.40;;;;;;5066418;28;20036;-64
2023/10/23 02:06:48;;;;;;;41.47;37.63;;;13.80;77.70;;;;;;5066270;28;20051;-64
2023/10/23 02:09:16;;;;;;;41.50;37.35;;;13.70;79.50;;;;;;5055072;28;20048;-64
2023/10/23 02:11:42;;;;;;;37.30;33.80;;;13.70;70.70;;;;;;5062957;28;20182;-64
2023/10/23 02:14:08;;;;;;;43.92;40.13;;;13.70;23.20;;;;;;5054902;28;20095;-64
2023/10/23 02:16:34;;;;;;;42.70;38.83;;;13.50;99.80;;;;;;5062898;28;20123;-64
2023/10/23 02:19:00;;;;;;;43.17;39.42;;;13.80;99.90;;;;;;5066599;28;20048;-64
2023/10/23 02:21:25;;;;;;;43.80;39.55;;;13.70;99.90;;;;;;5067091;28;20049;-64
2023/10/23 02:23:51;;;;;;;44.22;39.72;;;13.80;99.90;;;;;;5066775;28;20103;-65
2023/10/23 02:26:17;;;;;;;44.50;39.90;;;13.70;99.90;;;;;;5059014;28;20052;-64
2023/10/23 02:28:42;;;;;;;46.90;42.70;;;13.60;99.90;;;;;;5066857;28;20041;-64
2023/10/23 02:31:08;;;;;;;44.05;39.88;;;13.60;99.90;;;;;;5066799;28;20052;-64
2023/10/23 02:33:34;;;;;;;43.85;39.85;;;13.60;99.90;;;;;;5066248;28;20040;-64
2023/10/23 02:36:00;;;;;;;40.80;37.38;;;13.80;99.90;;;;;;5066645;28;20059;-64
2023/10/23 02:38:25;;;;;;;42.60;39.00;;;13.50;99.90;;;;;;5061809;28;20386;-64
2023/10/23 02:40:52;;;;;;;44.05;40.25;;;13.70;99.90;;;;;;5066340;28;20461;-64
2023/10/23 02:43:18;;;;;;;43.72;39.55;;;13.50;99.90;;;;;;5066988;28;20037;-64
2023/10/23 02:45:44;;;;;;;43.55;39.65;;;13.60;99.90;;;;;;5067119;28;20052;-64
2023/10/23 02:48:09;;;;;;;45.33;40.90;;;14.40;99.90;;;;;;5080669;28;20048;-64
2023/10/23 02:50:35;;;;;;;45.40;41.30;;;13.60;99.90;;;;;;5066619;28;20048;-64
2023/10/23 02:53:00;;;;;;;44.78;40.65;;;13.50;99.90;;;;;;5070368;28;20044;-64
2023/10/23 02:55:29;;;;;;;45.40;41.33;;;13.60;99.90;;;;;;5069609;28;20514;-64
2023/10/23 02:57:54;;;;;;;46.05;42.05;;;14.40;99.90;;;;;;5069999;28;20037;-60
2023/10/23 03:00:21;;;;;;;47.65;43.20;;;14.20;99.90;;;;;;5068448;28;20037;-60
2023/10/23 03:02:46;;;;;;;48.72;44.00;;;13.70;99.90;;;;;;5050465;28;20080;-60
2023/10/23 03:05:13;;;;;;;46.45;42.15;;;14.40;99.90;;;;;;5050439;28;20080;-60
2023/10/23 03:07:39;;;;;;;46.70;42.45;;;13.90;99.90;;;;;;5063526;28;20105;-61
2023/10/23 03:10:05;;;;;;;47.33;42.80;;;13.70;99.90;;;;;;5068116;28;20044;-61
2023/10/23 03:12:30;;;;;;;45.72;41.53;;;14.00;99.90;;;;;;5065126;28;20067;-60
2023/10/23 03:14:56;;;;;;;48.50;43.97;;;13.80;99.90;;;;;;5053921;28;20032;-61
2023/10/23 03:17:22;;;;;;;50.38;45.78;;;14.00;99.90;;;;;;5069471;28;20102;-62
2023/10/23 03:19:47;;;;;;;47.28;42.88;;;13.90;99.90;;;;;;5069640;28;20418;-60
2023/10/23 03:22:13;;;;;;;46.40;42.40;;;14.30;99.90;;;;;;5068421;28;20056;-60
2023/10/23 03:24:38;;;;;;;43.80;40.03;;;14.00;99.90;;;;;;5067425;28;20355;-61
2023/10/23 03:27:04;;;;;;;44.33;40.40;;;14.10;99.90;;;;;;5068749;28;20048;-61
2023/10/23 03:29:30;;;;;;;44.38;40.25;;;14.00;99.90;;;;;;5069003;28;20052;-62
2023/10/23 03:31:56;;;;;;;44.78;40.67;;;14.00;99.90;;;;;;5084128;28;20044;-61
2023/10/23 03:34:24;;;;;;;45.33;41.15;;;13.90;99.90;;;;;;5069979;28;20048;-61
2023/10/23 03:36:51;;;;;;;46.55;41.92;;;13.80;99.90;;;;;;5068803;28;20126;-60
2023/10/23 03:39:16;;;;;;;47.38;43.33;;;13.80;99.90;;;;;;5069725;28;20093;-61
2023/10/23 03:41:42;;;;;;;47.60;43.58;;;13.90;99.90;;;;;;5068987;28;20036;-63
2023/10/23 03:44:08;;;;;;;37.92;33.90;;;13.90;99.90;;;;;;5069709;28;20044;-60
2023/10/23 03:46:34;;;;;;;45.33;41.17;;;14.10;99.90;;;;;;5068926;28;20110;-61
2023/10/23 03:48:59;;;;;;;46.50;42.38;;;14.00;99.90;;;;;;5068632;28;20036;-61
2023/10/23 03:51:25;;;;;;;47.63;43.53;;;14.00;1.00;;;;;;5058278;28;20102;-61
2023/10/23 03:53:50;;;;;;;49.95;45.60;;;14.20;1.00;;;;;;5063884;28;20578;-60
2023/10/23 03:56:16;;;;;;;49.10;44.78;;;14.10;1.00;;;;;;5069309;28;20044;-62
2023/10/23 03:58:44;;;;;;;49.90;45.35;;;14.30;1.00;;;;;;5068975;28;20037;-61
2023/10/23 04:01:10;;;;;;;47.88;43.38;;;14.10;1.00;;;;;;5067573;28;20041;-61
2023/10/23 04:03:36;;;;;;;49.63;45.22;;;14.10;1.00;;;;;;5067817;28;20040;-61
2023/10/23 04:06:03;;;;;;;49.85;44.85;;;14.40;1.00;;;;;;5070188;28;20036;-61
2023/10/23 04:08:28;;;;;;;48.03;43.47;;;14.20;1.00;;;;;;5063862;28;20040;-64
2023/10/23 04:10:54;;;;;;;48.92;44.05;;;14.20;1.00;;;;;;5049577;28;20067;-64
2023/10/23 04:13:20;;;;;;;49.53;44.85;;;14.20;1.00;;;;;;5067813;28;20051;-64
2023/10/23 04:15:58;;;;;;;47.45;43.20;;;14.40;1.00;;;;;;5068931;28;20517;-64
2023/10/23 04:18:27;;;;;;;46.33;41.92;;;14.90;1.00;;;;;;5068838;28;20410;-64
2023/10/23 04:21:07;;;;;;;45.00;40.88;;;14.40;1.00;;;;;;5068953;28;20430;-65
2023/10/23 04:23:33;;;;;;;47.97;43.83;;;14.20;1.00;;;;;;5068875;28;20048;-65
2023/10/23 04:25:59;;;;;;;45.55;40.88;;;14.40;1.00;;;;;;5068474;28;20093;-65
2023/10/23 04:28:25;;;;;;;47.45;43.30;;;14.20;1.00;;;;;;5068594;28;20105;-64
2023/10/23 04:30:51;;;;;;;49.00;44.47;;;14.30;1.00;;;;;;5068462;28;20314;-65
2023/10/23 04:33:21;;;;;;;44.63;40.45;;;14.30;1.00;;;;;;5068693;28;20036;-64
2023/10/23 04:35:48;;;;;;;46.55;42.13;;;14.30;1.00;;;;;;5068774;28;20537;-65
2023/10/23 04:38:13;;;;;;;43.70;39.95;;;14.50;4.30;;;;;;5067431;28;20589;-63
2023/10/23 04:40:39;;;;;;;45.38;40.58;;;14.30;5.50;;;;;;5068619;28;20047;-63
2023/10/23 04:43:05;;;;;;;44.05;39.97;;;14.30;1.00;;;;;;5068986;28;20047;-64
2023/10/23 04:45:30;;;;;;;43.08;39.10;;;14.60;1.00;;;;;;5069320;28;20045;-64
2023/10/23 04:47:56;;;;;;;44.25;40.15;;;14.30;1.00;;;;;;5068888;28;20397;-64
2023/10/23 04:50:22;;;;;;;46.15;41.95;;;14.40;1.00;;;;;;5066993;28;20094;-65
2023/10/23 04:52:47;;;;;;;45.22;40.78;;;14.50;1.00;;;;;;5049320;28;20099;-65
2023/10/23 04:55:13;;;;;;;44.15;40.00;;;14.50;1.00;;;;;;5048560;28;20119;-64
2023/10/23 04:57:38;;;;;;;45.33;41.10;;;14.30;1.00;;;;;;5056940;28;20044;-64
2023/10/23 05:00:05;;;;;;;47.08;42.50;;;14.50;1.00;;;;;;5068468;28;20067;-64
2023/10/23 05:02:31;;;;;;;46.17;42.05;;;14.30;1.00;;;;;;5053079;28;20045;-64
2023/10/23 05:04:56;;;;;;;46.17;42.03;;;14.20;1.00;;;;;;5048362;28;20045;-64
2023/10/23 05:07:22;;;;;;;47.88;42.92;;;14.30;1.00;;;;;;5067276;28;20130;-64
2023/10/23 05:09:47;;;;;;;49.17;44.25;;;14.30;1.00;;;;;;5051898;28;20082;-65
2023/10/23 05:12:13;;;;;;;46.72;42.53;;;14.40;1.00;;;;;;5065718;28;20472;-65
2023/10/23 05:14:38;;;;;;;49.08;44.63;;;14.40;1.00;;;;;;5067163;28;20067;-64
2023/10/23 05:17:04;;;;;;;49.90;45.15;;;14.20;1.00;;;;;;5067633;28;20064;-64
2023/10/23 05:19:29;;;;;;;51.33;46.53;;;14.30;1.00;;;;;;5067238;28;20115;-60
2023/10/23 05:21:55;;;;;;;50.20;45.40;;;14.10;1.00;;;;;;5061624;28;20425;-61
2023/10/23 05:24:20;;;;;;;50.17;45.45;;;14.10;1.00;;;;;;5066366;28;20482;-61
2023/10/23 05:26:46;;;;;;;51.92;46.78;;;14.30;1.00;;;;;;5062466;28;20099;-61
2023/10/23 05:29:11;;;;;;;93.82;47.97;;;14.30;1.00;;;;;;5064856;28;20041;-61
2023/10/23 05:31:37;;;;;;;58.65;46.97;;;14.10;1.00;;;;;;5060107;28;20083;-60
2023/10/23 05:34:03;;;;;;;54.80;46.72;;;14.20;1.00;;;;;;5064690;28;20090;-61
2023/10/23 05:36:29;;;;;;;62.35;51.60;;;13.90;1.00;;;;;;5066464;28;20036;-61
2023/10/23 05:38:54;;;;;;;53.97;48.47;;;13.90;1.00;;;;;;5064353;28;20113;-60
2023/10/23 05:41:20;;;;;;;498.15;70.20;;;13.90;1.00;;;;;;5056910;28;20036;-61
2023/10/23 05:43:45;;;;;;;148.20;49.80;;;14.00;6.10;;;;;;5064880;28;20134;-61
2023/10/23 05:46:11;;;;;;;119.75;52.08;;;14.10;22.20;;;;;;5066350;28;20040;-61
2023/10/23 05:48:37;;;;;;;70.22;48.28;;;13.90;56.80;;;;;;5066447;28;20037;-61
2023/10/23 05:51:05;;;;;;;239.13;51.47;;;13.90;99.90;;;;;;5066241;28;20037;-60
2023/10/23 05:53:31;;;;;;;66.60;45.67;;;14.00;96.20;;;;;;5066336;28;20051;-61
2023/10/23 05:56:03;;;;;;;52.42;47.22;;;13.80;99.90;;;;;;5067506;28;20048;-60
2023/10/23 05:58:29;;;;;;;54.25;48.92;;;13.80;99.90;;;;;;5066475;28;20055;-61
2023/10/23 06:00:55;;;;;;;50.90;45.90;;;13.90;99.90;;;;;;5065705;28;20036;-61
2023/10/23 06:03:20;;;;;;;58.50;49.42;;;13.90;99.90;;;;;;5067218;28;20526;-62
2023/10/23 06:05:46;;;;;;;208.60;39.33;;;14.10;99.90;;;;;;5065322;28;20048;-61
2023/10/23 06:08:11;;;;;;;414.10;49.33;;;13.90;99.90;;;;;;5062533;28;20072;-61
2023/10/23 06:10:41;;;;;;;305.75;52.10;;;13.90;99.90;;;;;;5064645;28;20049;-62
2023/10/23 06:13:07;;;;;;;268.30;48.50;;;13.60;99.90;;;;;;5063417;28;20641;-64
2023/10/23 06:15:32;;;;;;;154.32;46.05;;;13.60;96.90;;;;;;5065382;28;20043;-63
2023/10/23 06:17:58;;;;;;;462.98;57.50;;;13.70;99.90;;;;;;5061716;28;20044;-62
2023/10/23 06:20:23;;;;;;;427.70;54.72;;;13.70;99.90;;;;;;5062666;28;20099;-61
2023/10/23 06:22:49;;;;;;;299.80;52.42;;;13.50;99.90;;;;;;5062924;28;20086;-62
2023/10/23 06:25:15;;;;;;;308.27;49.53;;;14.40;99.90;;;;;;5059207;28;20043;-63
2023/10/23 06:27:40;;;;;;;401.40;43.45;;;13.40;99.90;;;;;;5060640;28;20040;-67
2023/10/23 06:30:06;;;;;;;385.90;49.38;;;13.40;99.90;;;;;;5065221;28;20592;-68
2023/10/23 06:32:34;;;;;;;381.48;51.03;;;13.60;99.90;;;;;;5063725;28;20767;-66
2023/10/23 06:35:00;;;;;;;293.10;46.95;;;13.60;99.90;;;;;;5062893;28;20466;-66
2023/10/23 06:37:26;;;;;;;261.23;48.63;;;13.30;99.90;;;;;;5063431;28;20119;-67
2023/10/23 06:39:51;;;;;;;242.23;46.60;;;13.30;99.90;;;;;;5063714;28;20036;-65
2023/10/23 06:42:17;;;;;;;369.95;57.83;;;13.40;99.90;;;;;;5060011;28;20046;-67
2023/10/23 06:44:43;;;;;;;232.38;45.33;;;13.20;99.90;;;;;;5062208;28;20036;-65
2023/10/23 06:47:10;;;;;;;172.10;45.35;;;13.10;99.90;;;;;;5065231;28;20482;-65
2023/10/23 06:49:37;;;;;;;234.68;50.92;;;13.00;99.90;;;;;;5063287;28;20044;-64
2023/10/23 06:52:04;;;;;;;182.10;37.60;;;13.00;99.90;;;;;;5065461;28;20473;-64
2023/10/23 06:54:29;;;;;;;134.88;44.35;;;12.90;99.90;;;;;;5065620;28;20036;-64
2023/10/23 06:56:55;;;;;;;103.07;44.63;;;13.10;99.90;;;;;;5078882;28;20111;-64
2023/10/23 06:59:21;;;;;;;143.50;47.63;;;13.20;99.90;;;;;;5059998;28;20063;-65
2023/10/23 07:01:46;;;;;;;191.95;39.22;;;13.20;99.90;;;;;;5058717;28;20822;-65
2023/10/23 07:04:12;;;;;;;319.40;57.92;;;13.10;99.90;;;;;;5063014;28;20410;-63
2023/10/23 07:06:37;;;;;;;211.55;53.60;;;13.40;1.00;;;;;;5063136;28;20873;-64
2023/10/23 07:09:04;;;;;;;97.85;49.05;;;13.30;1.00;;;;;;5060876;28;20414;-64
2023/10/23 07:11:29;;;;;;;120.53;35.85;;;14.00;1.00;;;;;;5060920;28;20036;-65
2023/10/23 07:13:55;;;;;;;105.85;46.13;;;13.70;1.00;;;;;;5063559;28;20093;-65
2023/10/23 07:16:21;;;;;;;125.88;47.00;;;13.80;1.00;;;;;;5062647;28;20032;-64
2023/10/23 07:18:47;;;;;;;80.72;44.90;;;13.80;1.00;;;;;;5064945;28;20036;-64
2023/10/23 07:21:12;;;;;;;124.93;46.00;;;13.70;1.00;;;;;;5062628;28;20051;-65
2023/10/23 07:23:38;;;;;;;77.90;43.42;;;13.90;93.70;;;;;;5064524;28;20040;-64
2023/10/23 07:26:16;;;;;;;70.93;43.33;;;13.60;99.90;;;;;;5061743;28;20037;-65
2023/10/23 07:28:42;;;;;;;80.30;40.67;;;14.20;94.10;;;;;;5062006;28;20101;-64
2023/10/23 07:31:09;;;;;;;47.50;42.00;;;13.80;91.60;;;;;;5061921;28;20499;-65
2023/10/23 07:33:35;;;;;;;47.08;42.38;;;13.90;97.40;;;;;;5059406;28;20055;-65
2023/10/23 07:36:10;;;;;;;45.95;41.95;;;14.00;99.90;;;;;;5061478;28;20028;-64
2023/10/23 07:38:37;;;;;;;48.35;44.03;;;14.10;99.90;;;;;;5067284;28;20507;-61
2023/10/23 07:41:03;;;;;;;55.05;49.92;;;14.60;99.90;;;;;;5062839;28;20037;-61
2023/10/23 07:43:29;;;;;;;56.00;50.90;;;14.50;99.90;;;;;;5066459;28;20044;-62
2023/10/23 07:45:55;;;;;;;49.63;45.22;;;14.70;99.90;;;;;;5066623;28;20040;-63
2023/10/23 07:48:22;;;;;;;45.95;41.72;;;15.10;99.90;;;;;;5066266;28;20044;-64
2023/10/23 07:50:49;;;;;;;47.15;43.10;;;15.30;1.00;;;;;;5065794;28;20077;-62
2023/10/23 07:53:14;;;;;;;46.05;42.03;;;15.70;1.00;;;;;;5067539;28;20147;-62
2023/10/23 07:55:40;;;;;;;45.40;41.38;;;15.10;1.00;;;;;;5065539;28;20123;-62
2023/10/23 07:58:05;;;;;;;46.00;42.08;;;15.70;1.00;;;;;;5067457;28;20155;-62
2023/10/23 08:00:31;;;;;;;44.28;40.33;;;15.30;99.90;;;;;;5064904;28;20079;-62
2023/10/23 08:02:57;;;;;;;43.88;39.97;;;15.40;99.90;;;;;;5064944;28;20115;-61
2023/10/23 08:05:23;;;;;;;43.08;39.28;;;15.70;99.90;;;;;;5063861;28;20041;-65
2023/10/23 08:07:49;;;;;;;42.58;38.78;;;16.20;1.00;;;;;;5064184;28;20040;-63
2023/10/23 08:10:14;;;;;;;41.65;37.97;;;16.50;1.00;;;;;;5067018;28;20524;-63
2023/10/23 08:12:40;;;;;;;40.03;36.30;;;16.30;99.90;;;;;;5065034;28;20113;-64
2023/10/23 08:15:07;;;;;;;40.95;37.35;;;16.60;99.90;;;;;;5063292;28;20133;-63
2023/10/23 08:17:33;;;;;;;40.10;36.50;;;17.00;99.90;;;;;;5064609;28;20045;-65
2023/10/23 08:19:58;;;;;;;39.75;36.25;;;17.10;1.00;;;;;;5062998;28;20088;-62
2023/10/23 08:22:24;;;;;;;41.00;37.25;;;16.80;1.00;;;;;;5061343;28;20044;-63
2023/10/23 08:24:50;;;;;;;39.53;35.92;;;17.10;1.00;;;;;;5063650;28;20129;-63
2023/10/23 08:27:15;;;;;;;40.10;36.55;;;16.90;1.00;;;;;;5061435;28;20360;-64
2023/10/23 08:29:41;;;;;;;38.60;35.20;;;17.40;1.00;;;;;;5061596;28;20055;-62
2023/10/23 08:32:06;;;;;;;39.28;35.78;;;17.30;9.80;;;;;;5062840;28;20052;-62
2023/10/23 08:34:32;;;;;;;39.65;36.08;;;17.10;1.00;;;;;;5062620;28;20037;-63
2023/10/23 08:36:57;;;;;;;38.42;34.95;;;17.50;1.00;;;;;;5063821;28;20225;-63
2023/10/23 08:39:24;;;;;;;38.85;35.25;;;17.30;8.90;;;;;;5063820;28;20510;-62
2023/10/23 08:41:50;;;;;;;38.03;34.33;;;17.70;41.90;;;;;;5063471;28;20036;-65
2023/10/23 08:44:16;;;;;;;32.35;29.63;;;17.80;99.90;;;;;;5066641;28;20051;-63
2023/10/23 08:46:43;;;;;;;34.42;31.60;;;18.00;23.60;;;;;;5062887;28;20128;-64
2023/10/23 08:49:08;;;;;;;30.98;28.48;;;18.00;99.90;;;;;;5061693;28;20068;-64
2023/10/23 08:51:35;;;;;;;28.65;26.45;;;18.20;99.90;;;;;;5063481;28;20082;-63
2023/10/23 08:54:12;;;;;;;27.73;25.52;;;18.30;99.90;;;;;;5062989;28;20112;-63
2023/10/23 08:56:40;;;;;;;26.33;24.15;;;18.50;99.90;;;;;;5063254;28;20458;-64
2023/10/23 08:59:11;;;;;;;26.15;24.05;;;18.70;99.90;;;;;;5059073;28;20094;-64
2023/10/23 09:01:37;;;;;;;29.52;27.05;;;18.70;99.90;;;;;;5060063;28;20040;-65
2023/10/23 09:04:03;;;;;;;28.25;25.63;;;18.70;99.90;;;;;;5063085;28;20047;-65
2023/10/23 09:06:28;;;;;;;29.23;26.60;;;18.90;39.90;;;;;;5064317;28;20040;-65
2023/10/23 09:08:54;;;;;;;28.25;25.88;;;18.90;22.90;;;;;;5064809;28;20511;-65
2023/10/23 09:11:22;;;;;;;25.73;23.52;;;19.20;1.00;;;;;;5062603;28;20083;-64
2023/10/23 09:13:48;;;;;;;29.23;26.63;;;19.30;1.00;;;;;;5064760;28;20064;-65
2023/10/23 09:16:14;;;;;;;29.63;27.02;;;19.30;99.90;;;;;;5063162;28;20147;-64
2023/10/23 09:18:51;;;;;;;27.75;25.33;;;19.30;99.90;;;;;;5061295;28;20110;-64
2023/10/23 09:21:17;;;;;;;29.60;27.00;;;19.60;1.00;;;;;;5063426;28;20048;-65
2023/10/23 09:23:51;;;;;;;27.13;24.80;;;19.50;99.90;;;;;;5062364;28;20056;-64
2023/10/23 09:26:17;;;;;;;26.95;24.70;;;19.70;99.90;;;;;;5061869;28;20044;-65
2023/10/23 09:28:44;;;;;;;29.95;27.48;;;19.50;1.00;;;;;;5062920;28;20048;-64
2023/10/23 09:31:10;;;;;;;24.05;21.92;;;19.80;99.90;;;;;;5061747;28;20135;-64
2023/10/23 09:33:35;;;;;;;25.08;23.17;;;19.70;69.60;;;;;;5063254;28;20044;-65
2023/10/23 09:36:02;;;;;;;23.70;21.80;;;19.80;1.00;;;;;;5064309;28;20135;-64
2023/10/23 09:38:28;;;;;;;24.42;22.30;;;19.80;26.10;;;;;;5063710;28;20053;-64
2023/10/23 09:40:57;;;;;;;21.90;20.10;;;19.90;99.90;;;;;;5060873;28;20040;-64
2023/10/23 09:43:23;;;;;;;24.60;22.30;;;20.00;99.90;;;;;;5062875;28;20083;-65
2023/10/23 09:45:51;;;;;;;23.25;21.15;;;20.10;40.60;;;;;;5061584;28;20049;-65
2023/10/23 09:48:18;;;;;;;22.98;20.95;;;20.00;1.00;;;;;;5061062;28;20132;-64
2023/10/23 09:50:47;;;;;;;22.73;20.80;;;20.20;99.90;;;;;;5061800;28;20041;-64
2023/10/23 09:53:13;;;;;;;25.20;22.98;;;20.20;99.90;;;;;;5063012;28;20143;-64
2023/10/23 09:55:40;;;;;;;23.58;21.45;;;20.10;1.40;;;;;;5061538;28;20051;-65
2023/10/23 09:58:12;;;;;;;22.63;20.75;;;20.10;1.00;;;;;;5062384;28;20133;-63
2023/10/23 10:00:38;;;;;;;24.88;22.80;;;21.00;99.90;;;;;;5060643;28;20041;-62
2023/10/23 10:03:10;;;;;;;21.95;20.02;;;20.20;99.90;;;;;;5063012;28;20067;-63
2023/10/23 10:05:54;;;;;;;21.10;19.30;;;20.20;99.90;;;;;;5059747;28;20102;-65
2023/10/23 10:08:21;;;;;;;21.05;19.15;;;20.30;99.90;;;;;;5061310;28;20764;-62
2023/10/23 10:10:48;;;;;;;23.33;21.08;;;20.20;99.90;;;;;;5062249;28;20037;-63
2023/10/23 10:13:15;;;;;;;23.50;21.60;;;20.20;98.10;;;;;;5066087;28;20040;-62
2023/10/23 10:15:43;;;;;;;21.65;19.95;;;20.40;48.10;;;;;;5061529;28;20139;-63
2023/10/23 10:18:10;;;;;;;19.60;17.98;;;20.40;1.00;;;;;;5062108;28;20521;-63
2023/10/23 10:20:37;;;;;;;18.75;17.23;;;20.40;1.00;;;;;;5060576;28;20063;-61
2023/10/23 10:23:11;;;;;;;16.95;15.45;;;20.30;1.00;;;;;;5059003;28;20040;-63
2023/10/23 10:25:38;;;;;;;14.93;13.52;;;20.40;1.00;;;;;;5062642;28;20387;-63
2023/10/23 10:28:07;;;;;;;15.65;14.25;;;20.30;99.90;;;;;;5062295;28;20083;-63
2023/10/23 10:30:54;;;;;;;19.90;18.13;;;20.30;99.90;;;;;;5060268;28;20455;-63
2023/10/23 10:33:22;;;;;;;18.83;17.27;;;20.50;99.90;;;;;;5060696;28;20047;-64
2023/10/23 10:35:57;;;;;;;21.00;19.20;;;20.50;99.90;;;;;;5062173;28;20115;-63
2023/10/23 10:38:24;;;;;;;17.13;15.63;;;20.60;99.90;;;;;;5058889;28;20036;-62
2023/10/23 10:40:57;;;;;;;17.58;16.00;;;20.60;99.90;;;;;;5059533;28;20064;-63
2023/10/23 10:43:24;;;;;;;15.35;14.00;;;20.60;99.90;;;;;;5061314;28;20037;-62
2023/10/23 10:45:49;;;;;;;17.83;16.25;;;20.60;99.90;;;;;;5062746;28;20040;-64
2023/10/23 10:48:15;;;;;;;20.27;18.23;;;20.60;99.90;;;;;;5061009;28;20044;-62
2023/10/23 10:50:41;;;;;;;17.63;16.02;;;20.60;99.90;;;;;;5061762;28;20121;-63
2023/10/23 10:53:08;;;;;;;17.48;16.08;;;20.70;99.90;;;;;;5058641;28;20409;-62
2023/10/23 10:55:35;;;;;;;17.75;16.17;;;21.00;99.90;;;;;;5061833;28;20699;-62
2023/10/23 10:58:06;;;;;;;14.63;13.40;;;20.70;99.90;;;;;;5058753;28;20047;-62
2023/10/23 11:00:38;;;;;;;15.10;13.80;;;20.60;99.90;;;;;;5061153;28;20127;-63
2023/10/23 11:03:04;;;;;;;14.45;13.32;;;20.60;99.90;;;;;;5061110;28;20050;-62
2023/10/23 11:05:32;;;;;;;15.45;14.15;;;20.60;99.90;;;;;;5061954;28;20067;-63
2023/10/23 11:07:57;;;;;;;14.80;13.70;;;20.50;99.90;;;;;;5060530;28;20045;-63
2023/10/23 11:10:23;;;;;;;15.68;14.38;;;21.00;99.90;;;;;;5060890;28;20071;-63
2023/10/23 11:12:50;;;;;;;15.02;13.50;;;20.80;99.90;;;;;;5061059;28;20060;-62
2023/10/23 11:15:16;;;;;;;13.18;12.07;;;20.60;99.90;;;;;;5064135;28;20074;-64
2023/10/23 11:17:43;;;;;;;13.73;12.70;;;20.60;99.90;;;;;;5064823;28;20466;-63
2023/10/23 11:20:10;;;;;;;12.50;11.25;;;20.60;99.90;;;;;;5064312;28;20465;-61
2023/10/23 11:22:49;;;;;;;13.95;12.70;;;20.50;99.90;;;;;;5065387;28;20048;-62
2023/10/23 11:25:15;;;;;;;12.70;11.68;;;20.60;99.90;;;;;;5062713;28;20569;-62
2023/10/23 11:27:41;;;;;;;13.93;12.63;;;20.60;99.90;;;;;;5064264;28;20579;-62
2023/10/23 11:30:08;;;;;;;13.80;12.60;;;20.70;99.90;;;;;;5063644;28;20044;-62
2023/10/23 11:32:34;;;;;;;14.85;13.55;;;20.60;99.90;;;;;;5065182;28;20036;-64
2023/10/23 11:35:03;;;;;;;13.40;12.32;;;20.80;99.90;;;;;;5064010;28;21271;-62
2023/10/23 11:37:38;;;;;;;11.60;10.50;;;20.90;99.90;;;;;;5063457;28;20041;-64
2023/10/23 11:40:05;;;;;;;13.63;12.30;;;20.50;99.90;;;;;;5061629;28;20048;-63
2023/10/23 11:42:40;;;;;;;13.73;12.55;;;20.50;99.90;;;;;;5063151;28;20299;-62
2023/10/23 11:45:09;;;;;;;13.38;12.15;;;20.50;99.90;;;;;;5063655;28;20051;-62
2023/10/23 11:47:37;;;;;;;12.07;11.07;;;20.50;99.90;;;;;;5064281;28;20097;-63
2023/10/23 11:50:05;;;;;;;13.70;12.52;;;20.50;99.90;;;;;;5062707;28;20036;-64
2023/10/23 11:52:30;;;;;;;13.48;12.18;;;20.60;99.90;;;;;;5064178;28;20044;-62
2023/10/23 11:54:56;;;;;;;13.60;12.50;;;20.50;99.90;;;;;;5065363;28;20039;-64
2023/10/23 11:57:22;;;;;;;13.75;12.55;;;20.60;99.90;;;;;;5063262;28;20036;-62
2023/10/23 11:59:48;;;;;;;11.80;10.80;;;20.60;99.90;;;;;;5063891;28;20052;-62
2023/10/23 12:02:15;;;;;;;14.15;12.88;;;20.60;99.90;;;;;;5063543;28;20040;-63
2023/10/23 12:04:41;;;;;;;13.35;12.25;;;20.60;99.90;;;;;;5063829;28;20143;-61
2023/10/23 12:07:06;;;;;;;12.25;11.07;;;20.60;99.90;;;;;;5064282;28;20552;-63
2023/10/23 12:09:32;;;;;;;11.77;10.52;;;20.60;99.90;;;;;;5063572;28;20085;-61
2023/10/23 12:11:58;;;;;;;14.60;13.32;;;20.60;99.90;;;;;;5064829;28;20766;-61
2023/10/23 12:14:23;;;;;;;12.77;11.57;;;20.70;99.90;;;;;;5065272;28;20056;-62
2023/10/23 12:16:49;;;;;;;13.07;11.70;;;20.60;99.90;;;;;;5064545;28;20569;-61
2023/10/23 12:19:15;;;;;;;14.60;13.50;;;20.60;99.90;;;;;;5062242;28;20778;-63
2023/10/23 12:21:40;;;;;;;11.98;10.85;;;20.50;99.90;;;;;;5063741;28;20072;-61
2023/10/23 12:24:07;;;;;;;13.52;12.23;;;20.40;99.90;;;;;;5063556;28;20410;-62